sensor_id;sensor_type;location;lat;lon;timestamp;P1;durP1;ratioP1;P2;durP2;ratioP2
16189;SDS011;41754;51.498;7.540;2023-02-18T00:01:13;40.10;;;35.75;;
16189;SDS011;41754;51.498;7.540;2023-02-18T00:03:47;39.15;;;34.22;;
16189;SDS011;41754;51.498;7.540;2023-02-18T00:06:17;37.78;;;32.95;;
16189;SDS011;41754;51.498;7.540;2023-02-18T00:08:47;39.25;;;34.95;;
16189;SDS011;41754;51.498;7.540;2023-02-18T00:11:16;37.13;;;33.13;;
16189;SDS011;41754;51.498;7.540;2023-02-18T00:13:48;38.20;;;33.22;;
16189;SDS011;41754;51.498;7.540;2023-02-18T00:16:19;35.28;;;31.35;;
16189;SDS011;41754;51.498;7.540;2023-02-18T00:18:47;34.80;;;31.10;;
16189;SDS011;41754;51.498;7.540;2023-02-18T00:21:15;38.88;;;30.58;;
16189;SDS011;41754;51.498;7.540;2023-02-18T00:23:43;36.35;;;30.42;;
16189;SDS011;41754;51.498;7.540;2023-02-18T00:26:12;35.85;;;30.73;;
16189;SDS011;41754;51.498;7.540;2023-02-18T00:28:41;35.45;;;29.83;;
16189;SDS011;41754;51.498;7.540;2023-02-18T00:31:11;35.42;;;29.95;;
16189;SDS011;41754;51.498;7.540;2023-02-18T00:33:41;34.75;;;30.95;;
16189;SDS011;41754;51.498;7.540;2023-02-18T00:36:10;36.58;;;30.90;;
16189;SDS011;41754;51.498;7.540;2023-02-18T00:38:42;36.50;;;29.48;;
16189;SDS011;41754;51.498;7.540;2023-02-18T00:41:11;36.72;;;31.15;;
16189;SDS011;41754;51.498;7.540;2023-02-18T00:43:39;35.60;;;29.80;;
16189;SDS011;41754;51.498;7.540;2023-02-18T00:46:07;31.80;;;27.88;;
16189;SDS011;41754;51.498;7.540;2023-02-18T00:48:36;30.60;;;27.13;;
16189;SDS011;41754;51.498;7.540;2023-02-18T00:51:05;31.52;;;28.13;;
16189;SDS011;41754;51.498;7.540;2023-02-18T00:53:34;32.83;;;27.02;;
16189;SDS011;41754;51.498;7.540;2023-02-18T00:56:02;34.08;;;28.25;;
16189;SDS011;41754;51.498;7.540;2023-02-18T00:58:31;34.35;;;28.58;;
16189;SDS011;41754;51.498;7.540;2023-02-18T01:00:59;38.60;;;29.02;;
16189;SDS011;41754;51.498;7.540;2023-02-18T01:03:27;36.17;;;29.37;;
16189;SDS011;41754;51.498;7.540;2023-02-18T01:05:55;35.05;;;28.70;;
16189;SDS011;41754;51.498;7.540;2023-02-18T01:08:28;35.58;;;28.58;;
16189;SDS011;41754;51.498;7.540;2023-02-18T01:10:57;34.55;;;28.35;;
16189;SDS011;41754;51.498;7.540;2023-02-18T01:13:25;35.83;;;27.80;;
16189;SDS011;41754;51.498;7.540;2023-02-18T01:15:53;32.13;;;27.10;;
16189;SDS011;41754;51.498;7.540;2023-02-18T01:18:21;33.83;;;27.80;;
16189;SDS011;41754;51.498;7.540;2023-02-18T01:20:50;34.38;;;27.80;;
16189;SDS011;41754;51.498;7.540;2023-02-18T01:23:19;35.20;;;27.38;;
16189;SDS011;41754;51.498;7.540;2023-02-18T01:25:48;34.42;;;26.63;;
16189;SDS011;41754;51.498;7.540;2023-02-18T01:28:17;34.90;;;27.95;;
16189;SDS011;41754;51.498;7.540;2023-02-18T01:30:46;34.47;;;26.20;;
16189;SDS011;41754;51.498;7.540;2023-02-18T01:33:16;34.75;;;26.77;;
16189;SDS011;41754;51.498;7.540;2023-02-18T01:35:44;31.75;;;25.65;;
16189;SDS011;41754;51.498;7.540;2023-02-18T01:38:12;32.28;;;25.67;;
16189;SDS011;41754;51.498;7.540;2023-02-18T01:40:46;30.38;;;24.45;;
16189;SDS011;41754;51.498;7.540;2023-02-18T01:43:19;30.17;;;24.33;;
16189;SDS011;41754;51.498;7.540;2023-02-18T01:45:56;31.67;;;25.30;;
16189;SDS011;41754;51.498;7.540;2023-02-18T01:48:28;30.07;;;23.70;;
16189;SDS011;41754;51.498;7.540;2023-02-18T01:51:00;28.63;;;22.70;;
16189;SDS011;41754;51.498;7.540;2023-02-18T01:53:32;32.57;;;23.17;;
16189;SDS011;41754;51.498;7.540;2023-02-18T01:56:07;31.40;;;24.80;;
16189;SDS011;41754;51.498;7.540;2023-02-18T01:58:39;28.35;;;24.13;;
16189;SDS011;41754;51.498;7.540;2023-02-18T02:01:07;31.35;;;23.77;;
16189;SDS011;41754;51.498;7.540;2023-02-18T02:03:36;32.58;;;24.02;;
16189;SDS011;41754;51.498;7.540;2023-02-18T02:06:05;30.73;;;24.63;;
16189;SDS011;41754;51.498;7.540;2023-02-18T02:08:39;28.02;;;23.98;;
16189;SDS011;41754;51.498;7.540;2023-02-18T02:11:10;28.00;;;24.42;;
16189;SDS011;41754;51.498;7.540;2023-02-18T02:13:52;34.15;;;25.02;;
16189;SDS011;41754;51.498;7.540;2023-02-18T02:16:32;29.13;;;24.90;;
16189;SDS011;41754;51.498;7.540;2023-02-18T02:19:12;30.93;;;23.10;;
16189;SDS011;41754;51.498;7.540;2023-02-18T02:22:12;28.70;;;23.33;;
16189;SDS011;41754;51.498;7.540;2023-02-18T02:25:11;27.95;;;23.20;;
16189;SDS011;41754;51.498;7.540;2023-02-18T02:27:53;25.63;;;22.13;;
16189;SDS011;41754;51.498;7.540;2023-02-18T02:30:53;26.33;;;22.50;;
16189;SDS011;41754;51.498;7.540;2023-02-18T02:36:39;23.60;;;19.83;;
16189;SDS011;41754;51.498;7.540;2023-02-18T02:39:15;23.87;;;20.70;;
16189;SDS011;41754;51.498;7.540;2023-02-18T02:41:51;21.63;;;19.00;;
16189;SDS011;41754;51.498;7.540;2023-02-18T02:44:27;24.80;;;19.75;;
16189;SDS011;41754;51.498;7.540;2023-02-18T02:47:05;21.15;;;18.73;;
16189;SDS011;41754;51.498;7.540;2023-02-18T02:49:40;20.80;;;18.58;;
16189;SDS011;41754;51.498;7.540;2023-02-18T02:52:16;22.75;;;18.60;;
16189;SDS011;41754;51.498;7.540;2023-02-18T02:54:48;20.02;;;17.65;;
16189;SDS011;41754;51.498;7.540;2023-02-18T03:00:15;23.17;;;16.92;;
16189;SDS011;41754;51.498;7.540;2023-02-18T03:02:50;17.10;;;15.27;;
16189;SDS011;41754;51.498;7.540;2023-02-18T03:05:31;17.55;;;15.68;;
16189;SDS011;41754;51.498;7.540;2023-02-18T03:08:20;17.85;;;15.95;;
16189;SDS011;41754;51.498;7.540;2023-02-18T03:11:00;17.25;;;15.02;;
16189;SDS011;41754;51.498;7.540;2023-02-18T03:13:39;15.35;;;13.75;;
16189;SDS011;41754;51.498;7.540;2023-02-18T03:16:22;16.85;;;13.43;;
16189;SDS011;41754;51.498;7.540;2023-02-18T03:19:04;16.48;;;13.52;;
16189;SDS011;41754;51.498;7.540;2023-02-18T03:21:38;12.90;;;11.57;;
16189;SDS011;41754;51.498;7.540;2023-02-18T03:24:14;13.63;;;11.65;;
16189;SDS011;41754;51.498;7.540;2023-02-18T03:26:45;12.65;;;11.05;;
16189;SDS011;41754;51.498;7.540;2023-02-18T03:29:17;12.93;;;11.70;;
16189;SDS011;41754;51.498;7.540;2023-02-18T03:31:48;12.43;;;11.20;;
16189;SDS011;41754;51.498;7.540;2023-02-18T03:34:29;12.40;;;10.55;;
16189;SDS011;41754;51.498;7.540;2023-02-18T03:36:59;11.93;;;10.80;;
16189;SDS011;41754;51.498;7.540;2023-02-18T03:39:30;12.90;;;11.57;;
16189;SDS011;41754;51.498;7.540;2023-02-18T03:42:02;14.55;;;12.05;;
16189;SDS011;41754;51.498;7.540;2023-02-18T03:44:30;12.60;;;11.30;;
16189;SDS011;41754;51.498;7.540;2023-02-18T03:46:58;12.73;;;11.43;;
16189;SDS011;41754;51.498;7.540;2023-02-18T03:49:26;12.80;;;11.48;;
16189;SDS011;41754;51.498;7.540;2023-02-18T03:51:54;13.25;;;11.65;;
16189;SDS011;41754;51.498;7.540;2023-02-18T03:54:22;13.88;;;12.18;;
16189;SDS011;41754;51.498;7.540;2023-02-18T03:56:51;13.00;;;11.38;;
16189;SDS011;41754;51.498;7.540;2023-02-18T03:59:19;12.45;;;11.15;;
16189;SDS011;41754;51.498;7.540;2023-02-18T04:01:47;11.95;;;10.82;;
16189;SDS011;41754;51.498;7.540;2023-02-18T04:04:14;12.57;;;10.88;;
16189;SDS011;41754;51.498;7.540;2023-02-18T04:06:42;11.63;;;10.43;;
16189;SDS011;41754;51.498;7.540;2023-02-18T04:09:10;11.73;;;10.18;;
16189;SDS011;41754;51.498;7.540;2023-02-18T04:11:38;10.80;;;9.50;;
16189;SDS011;41754;51.498;7.540;2023-02-18T04:14:08;12.57;;;10.10;;
16189;SDS011;41754;51.498;7.540;2023-02-18T04:16:39;11.15;;;9.95;;
16189;SDS011;41754;51.498;7.540;2023-02-18T04:19:07;10.70;;;9.60;;
16189;SDS011;41754;51.498;7.540;2023-02-18T04:21:35;11.98;;;10.27;;
16189;SDS011;41754;51.498;7.540;2023-02-18T04:24:03;10.57;;;9.48;;
16189;SDS011;41754;51.498;7.540;2023-02-18T04:26:31;11.27;;;10.02;;
16189;SDS011;41754;51.498;7.540;2023-02-18T04:28:58;13.20;;;10.57;;
16189;SDS011;41754;51.498;7.540;2023-02-18T04:31:28;12.13;;;10.70;;
16189;SDS011;41754;51.498;7.540;2023-02-18T04:33:56;15.07;;;11.43;;
16189;SDS011;41754;51.498;7.540;2023-02-18T04:36:23;13.18;;;10.73;;
16189;SDS011;41754;51.498;7.540;2023-02-18T04:38:51;12.77;;;11.07;;
16189;SDS011;41754;51.498;7.540;2023-02-18T04:41:19;11.80;;;10.05;;
16189;SDS011;41754;51.498;7.540;2023-02-18T04:43:47;11.68;;;10.30;;
16189;SDS011;41754;51.498;7.540;2023-02-18T04:46:15;11.57;;;9.75;;
16189;SDS011;41754;51.498;7.540;2023-02-18T04:48:44;13.23;;;9.25;;
16189;SDS011;41754;51.498;7.540;2023-02-18T04:51:12;10.77;;;8.68;;
16189;SDS011;41754;51.498;7.540;2023-02-18T04:53:40;11.45;;;8.23;;
16189;SDS011;41754;51.498;7.540;2023-02-18T04:56:07;9.40;;;8.43;;
16189;SDS011;41754;51.498;7.540;2023-02-18T04:58:36;9.07;;;6.60;;
16189;SDS011;41754;51.498;7.540;2023-02-18T05:01:03;8.40;;;7.30;;
16189;SDS011;41754;51.498;7.540;2023-02-18T05:03:31;8.85;;;6.88;;
16189;SDS011;41754;51.498;7.540;2023-02-18T05:06:01;7.78;;;6.68;;
16189;SDS011;41754;51.498;7.540;2023-02-18T05:08:29;7.55;;;6.47;;
16189;SDS011;41754;51.498;7.540;2023-02-18T05:10:57;7.15;;;6.13;;
16189;SDS011;41754;51.498;7.540;2023-02-18T05:13:25;6.55;;;5.85;;
16189;SDS011;41754;51.498;7.540;2023-02-18T05:15:53;5.65;;;4.75;;
16189;SDS011;41754;51.498;7.540;2023-02-18T05:18:21;5.07;;;4.57;;
16189;SDS011;41754;51.498;7.540;2023-02-18T05:20:48;5.65;;;4.28;;
16189;SDS011;41754;51.498;7.540;2023-02-18T05:23:18;4.20;;;3.80;;
16189;SDS011;41754;51.498;7.540;2023-02-18T05:25:46;3.15;;;2.83;;
16189;SDS011;41754;51.498;7.540;2023-02-18T05:28:14;3.05;;;2.75;;
16189;SDS011;41754;51.498;7.540;2023-02-18T05:30:42;3.05;;;2.75;;
16189;SDS011;41754;51.498;7.540;2023-02-18T05:33:10;2.90;;;2.60;;
16189;SDS011;41754;51.498;7.540;2023-02-18T05:35:38;2.28;;;2.08;;
16189;SDS011;41754;51.498;7.540;2023-02-18T05:38:05;2.20;;;2.00;;
16189;SDS011;41754;51.498;7.540;2023-02-18T05:40:35;3.15;;;2.08;;
16189;SDS011;41754;51.498;7.540;2023-02-18T05:43:02;1.73;;;1.63;;
16189;SDS011;41754;51.498;7.540;2023-02-18T05:45:30;1.58;;;1.48;;
16189;SDS011;41754;51.498;7.540;2023-02-18T05:47:58;2.40;;;1.83;;
16189;SDS011;41754;51.498;7.540;2023-02-18T05:50:26;1.60;;;1.50;;
16189;SDS011;41754;51.498;7.540;2023-02-18T05:52:54;2.20;;;1.40;;
16189;SDS011;41754;51.498;7.540;2023-02-18T05:55:22;2.40;;;1.80;;
16189;SDS011;41754;51.498;7.540;2023-02-18T05:57:51;2.13;;;1.50;;
16189;SDS011;41754;51.498;7.540;2023-02-18T06:00:19;1.90;;;1.75;;
16189;SDS011;41754;51.498;7.540;2023-02-18T06:02:47;1.70;;;1.27;;
16189;SDS011;41754;51.498;7.540;2023-02-18T06:05:15;1.40;;;1.30;;
16189;SDS011;41754;51.498;7.540;2023-02-18T06:07:43;1.65;;;1.55;;
16189;SDS011;41754;51.498;7.540;2023-02-18T06:10:11;1.40;;;1.15;;
16189;SDS011;41754;51.498;7.540;2023-02-18T06:12:39;1.30;;;1.20;;
16189;SDS011;41754;51.498;7.540;2023-02-18T06:15:08;1.02;;;1.00;;
16189;SDS011;41754;51.498;7.540;2023-02-18T06:17:36;1.38;;;1.27;;
16189;SDS011;41754;51.498;7.540;2023-02-18T06:20:05;1.33;;;1.23;;
16189;SDS011;41754;51.498;7.540;2023-02-18T06:22:33;1.70;;;1.60;;
16189;SDS011;41754;51.498;7.540;2023-02-18T06:25:01;1.73;;;1.55;;
16189;SDS011;41754;51.498;7.540;2023-02-18T06:27:29;1.55;;;1.45;;
16189;SDS011;41754;51.498;7.540;2023-02-18T06:29:57;1.65;;;1.55;;
16189;SDS011;41754;51.498;7.540;2023-02-18T06:32:26;1.70;;;1.45;;
16189;SDS011;41754;51.498;7.540;2023-02-18T06:34:54;1.85;;;1.58;;
16189;SDS011;41754;51.498;7.540;2023-02-18T06:37:22;1.65;;;1.55;;
16189;SDS011;41754;51.498;7.540;2023-02-18T06:39:49;1.05;;;1.05;;
16189;SDS011;41754;51.498;7.540;2023-02-18T06:42:17;2.17;;;1.38;;
16189;SDS011;41754;51.498;7.540;2023-02-18T06:44:45;2.40;;;2.20;;
16189;SDS011;41754;51.498;7.540;2023-02-18T06:47:13;2.33;;;2.13;;
16189;SDS011;41754;51.498;7.540;2023-02-18T06:49:42;1.85;;;1.75;;
16189;SDS011;41754;51.498;7.540;2023-02-18T06:52:10;2.63;;;2.40;;
16189;SDS011;41754;51.498;7.540;2023-02-18T06:54:38;1.85;;;1.75;;
16189;SDS011;41754;51.498;7.540;2023-02-18T06:57:05;2.20;;;2.00;;
16189;SDS011;41754;51.498;7.540;2023-02-18T06:59:36;2.35;;;2.15;;
16189;SDS011;41754;51.498;7.540;2023-02-18T07:02:04;2.37;;;2.17;;
16189;SDS011;41754;51.498;7.540;2023-02-18T07:04:32;2.50;;;2.30;;
16189;SDS011;41754;51.498;7.540;2023-02-18T07:07:01;4.90;;;3.87;;
16189;SDS011;41754;51.498;7.540;2023-02-18T07:09:29;4.43;;;3.70;;
16189;SDS011;41754;51.498;7.540;2023-02-18T07:11:57;3.97;;;3.58;;
16189;SDS011;41754;51.498;7.540;2023-02-18T07:14:24;2.67;;;2.47;;
16189;SDS011;41754;51.498;7.540;2023-02-18T07:16:53;2.20;;;2.00;;
16189;SDS011;41754;51.498;7.540;2023-02-18T07:19:21;2.47;;;2.13;;
16189;SDS011;41754;51.498;7.540;2023-02-18T07:21:49;3.30;;;3.10;;
16189;SDS011;41754;51.498;7.540;2023-02-18T07:24:18;3.15;;;2.85;;
16189;SDS011;41754;51.498;7.540;2023-02-18T07:26:46;3.30;;;3.00;;
16189;SDS011;41754;51.498;7.540;2023-02-18T07:29:14;3.45;;;3.15;;
16189;SDS011;41754;51.498;7.540;2023-02-18T07:31:41;3.90;;;3.53;;
16189;SDS011;41754;51.498;7.540;2023-02-18T07:34:09;2.80;;;2.60;;
16189;SDS011;41754;51.498;7.540;2023-02-18T07:36:37;3.08;;;2.78;;
16189;SDS011;41754;51.498;7.540;2023-02-18T07:39:05;3.38;;;3.08;;
16189;SDS011;41754;51.498;7.540;2023-02-18T07:41:34;3.65;;;3.30;;
16189;SDS011;41754;51.498;7.540;2023-02-18T07:44:06;3.80;;;3.50;;
16189;SDS011;41754;51.498;7.540;2023-02-18T07:46:34;4.90;;;3.17;;
16189;SDS011;41754;51.498;7.540;2023-02-18T07:49:05;4.57;;;3.72;;
16189;SDS011;41754;51.498;7.540;2023-02-18T07:51:33;4.30;;;3.50;;
16189;SDS011;41754;51.498;7.540;2023-02-18T07:54:03;5.63;;;4.22;;
16189;SDS011;41754;51.498;7.540;2023-02-18T07:56:31;3.00;;;2.70;;
16189;SDS011;41754;51.498;7.540;2023-02-18T07:59:00;3.95;;;3.17;;
16189;SDS011;41754;51.498;7.540;2023-02-18T08:01:28;3.25;;;3.00;;
16189;SDS011;41754;51.498;7.540;2023-02-18T08:03:56;3.20;;;2.90;;
16189;SDS011;41754;51.498;7.540;2023-02-18T08:06:26;2.80;;;2.60;;
16189;SDS011;41754;51.498;7.540;2023-02-18T08:08:57;3.25;;;2.60;;
16189;SDS011;41754;51.498;7.540;2023-02-18T08:11:25;2.72;;;2.53;;
16189;SDS011;41754;51.498;7.540;2023-02-18T08:13:53;2.70;;;2.15;;
16189;SDS011;41754;51.498;7.540;2023-02-18T08:16:22;3.45;;;2.00;;
16189;SDS011;41754;51.498;7.540;2023-02-18T08:18:50;2.72;;;1.98;;
16189;SDS011;41754;51.498;7.540;2023-02-18T08:21:19;3.08;;;1.88;;
16189;SDS011;41754;51.498;7.540;2023-02-18T08:23:49;1.40;;;1.30;;
16189;SDS011;41754;51.498;7.540;2023-02-18T08:26:17;1.95;;;1.75;;
16189;SDS011;41754;51.498;7.540;2023-02-18T08:28:46;1.73;;;1.40;;
16189;SDS011;41754;51.498;7.540;2023-02-18T08:31:15;1.40;;;1.30;;
16189;SDS011;41754;51.498;7.540;2023-02-18T08:33:46;1.80;;;1.15;;
16189;SDS011;41754;51.498;7.540;2023-02-18T08:36:14;1.20;;;1.10;;
16189;SDS011;41754;51.498;7.540;2023-02-18T08:38:42;1.40;;;1.20;;
16189;SDS011;41754;51.498;7.540;2023-02-18T08:41:10;1.20;;;1.10;;
16189;SDS011;41754;51.498;7.540;2023-02-18T08:43:39;1.23;;;1.02;;
16189;SDS011;41754;51.498;7.540;2023-02-18T08:46:08;1.70;;;1.00;;
16189;SDS011;41754;51.498;7.540;2023-02-18T08:48:41;1.67;;;1.08;;
16189;SDS011;41754;51.498;7.540;2023-02-18T08:51:12;1.77;;;1.08;;
16189;SDS011;41754;51.498;7.540;2023-02-18T08:53:41;1.10;;;0.90;;
16189;SDS011;41754;51.498;7.540;2023-02-18T08:56:10;1.10;;;1.00;;
16189;SDS011;41754;51.498;7.540;2023-02-18T08:58:38;1.10;;;1.00;;
16189;SDS011;41754;51.498;7.540;2023-02-18T09:01:07;1.80;;;1.20;;
16189;SDS011;41754;51.498;7.540;2023-02-18T09:03:37;1.15;;;1.05;;
16189;SDS011;41754;51.498;7.540;2023-02-18T09:06:06;1.35;;;1.25;;
16189;SDS011;41754;51.498;7.540;2023-02-18T09:08:35;1.27;;;1.17;;
16189;SDS011;41754;51.498;7.540;2023-02-18T09:11:03;1.42;;;1.10;;
16189;SDS011;41754;51.498;7.540;2023-02-18T09:13:31;1.20;;;1.10;;
16189;SDS011;41754;51.498;7.540;2023-02-18T09:16:00;2.57;;;1.23;;
16189;SDS011;41754;51.498;7.540;2023-02-18T09:18:31;2.42;;;1.20;;
16189;SDS011;41754;51.498;7.540;2023-02-18T09:21:00;2.40;;;1.57;;
16189;SDS011;41754;51.498;7.540;2023-02-18T09:23:29;3.93;;;1.67;;
16189;SDS011;41754;51.498;7.540;2023-02-18T09:26:02;3.57;;;1.47;;
16189;SDS011;41754;51.498;7.540;2023-02-18T09:28:31;4.23;;;1.90;;
16189;SDS011;41754;51.498;7.540;2023-02-18T09:31:02;4.10;;;1.70;;
16189;SDS011;41754;51.498;7.540;2023-02-18T09:33:33;4.22;;;2.20;;
16189;SDS011;41754;51.498;7.540;2023-02-18T09:36:02;5.10;;;1.90;;
16189;SDS011;41754;51.498;7.540;2023-02-18T09:38:30;4.23;;;1.80;;
16189;SDS011;41754;51.498;7.540;2023-02-18T09:41:00;7.23;;;2.20;;
16189;SDS011;41754;51.498;7.540;2023-02-18T09:43:32;4.25;;;2.03;;
16189;SDS011;41754;51.498;7.540;2023-02-18T09:46:03;5.00;;;1.90;;
16189;SDS011;41754;51.498;7.540;2023-02-18T09:48:36;8.20;;;2.40;;
16189;SDS011;41754;51.498;7.540;2023-02-18T09:51:04;4.82;;;2.28;;
16189;SDS011;41754;51.498;7.540;2023-02-18T09:53:32;4.93;;;2.70;;
16189;SDS011;41754;51.498;7.540;2023-02-18T09:56:01;7.22;;;3.08;;
16189;SDS011;41754;51.498;7.540;2023-02-18T09:58:29;5.25;;;2.40;;
16189;SDS011;41754;51.498;7.540;2023-02-18T10:01:03;10.00;;;3.13;;
16189;SDS011;41754;51.498;7.540;2023-02-18T10:03:33;7.45;;;2.88;;
16189;SDS011;41754;51.498;7.540;2023-02-18T10:06:02;5.67;;;2.50;;
16189;SDS011;41754;51.498;7.540;2023-02-18T10:08:33;7.77;;;3.13;;
16189;SDS011;41754;51.498;7.540;2023-02-18T10:11:05;6.20;;;2.80;;
16189;SDS011;41754;51.498;7.540;2023-02-18T10:13:39;7.50;;;2.83;;
16189;SDS011;41754;51.498;7.540;2023-02-18T10:16:08;5.70;;;3.15;;
16189;SDS011;41754;51.498;7.540;2023-02-18T10:18:42;8.27;;;3.60;;
16189;SDS011;41754;51.498;7.540;2023-02-18T10:21:14;8.60;;;3.37;;
16189;SDS011;41754;51.498;7.540;2023-02-18T10:23:48;8.33;;;3.10;;
16189;SDS011;41754;51.498;7.540;2023-02-18T10:26:21;5.47;;;3.20;;
16189;SDS011;41754;51.498;7.540;2023-02-18T10:28:49;7.25;;;3.15;;
16189;SDS011;41754;51.498;7.540;2023-02-18T10:31:19;9.60;;;3.78;;
16189;SDS011;41754;51.498;7.540;2023-02-18T10:33:53;9.52;;;3.92;;
16189;SDS011;41754;51.498;7.540;2023-02-18T10:36:28;18.55;;;9.45;;
16189;SDS011;41754;51.498;7.540;2023-02-18T10:39:05;14.20;;;4.77;;
16189;SDS011;41754;51.498;7.540;2023-02-18T10:41:52;13.20;;;4.57;;
16189;SDS011;41754;51.498;7.540;2023-02-18T10:44:29;7.13;;;3.40;;
16189;SDS011;41754;51.498;7.540;2023-02-18T10:47:06;10.17;;;3.90;;
16189;SDS011;41754;51.498;7.540;2023-02-18T10:49:54;8.97;;;3.57;;
16189;SDS011;41754;51.498;7.540;2023-02-18T10:52:26;8.80;;;3.60;;
16189;SDS011;41754;51.498;7.540;2023-02-18T10:55:00;7.47;;;3.80;;
16189;SDS011;41754;51.498;7.540;2023-02-18T10:57:31;6.83;;;3.30;;
16189;SDS011;41754;51.498;7.540;2023-02-18T11:00:01;8.97;;;4.27;;
16189;SDS011;41754;51.498;7.540;2023-02-18T11:02:41;9.13;;;3.60;;
16189;SDS011;41754;51.498;7.540;2023-02-18T11:05:17;8.57;;;3.73;;
16189;SDS011;41754;51.498;7.540;2023-02-18T11:07:49;8.67;;;4.10;;
16189;SDS011;41754;51.498;7.540;2023-02-18T11:10:22;12.17;;;4.27;;
16189;SDS011;41754;51.498;7.540;2023-02-18T11:12:55;8.57;;;3.87;;
16189;SDS011;41754;51.498;7.540;2023-02-18T11:15:27;10.27;;;5.20;;
16189;SDS011;41754;51.498;7.540;2023-02-18T11:17:56;9.53;;;4.30;;
16189;SDS011;41754;51.498;7.540;2023-02-18T11:20:38;8.23;;;4.03;;
16189;SDS011;41754;51.498;7.540;2023-02-18T11:23:17;10.17;;;4.43;;
16189;SDS011;41754;51.498;7.540;2023-02-18T11:25:54;9.47;;;4.77;;
16189;SDS011;41754;51.498;7.540;2023-02-18T11:28:27;12.10;;;5.87;;
16189;SDS011;41754;51.498;7.540;2023-02-18T11:31:00;8.47;;;5.10;;
16189;SDS011;41754;51.498;7.540;2023-02-18T11:33:32;12.57;;;5.00;;
16189;SDS011;41754;51.498;7.540;2023-02-18T11:36:02;9.60;;;4.47;;
16189;SDS011;41754;51.498;7.540;2023-02-18T11:38:40;10.27;;;4.10;;
16189;SDS011;41754;51.498;7.540;2023-02-18T11:41:12;8.87;;;3.63;;
16189;SDS011;41754;51.498;7.540;2023-02-18T11:43:46;6.07;;;3.57;;
16189;SDS011;41754;51.498;7.540;2023-02-18T11:46:16;7.43;;;4.37;;
16189;SDS011;41754;51.498;7.540;2023-02-18T11:48:46;7.33;;;4.80;;
16189;SDS011;41754;51.498;7.540;2023-02-18T11:51:15;9.00;;;5.10;;
16189;SDS011;41754;51.498;7.540;2023-02-18T11:53:52;5.97;;;4.53;;
16189;SDS011;41754;51.498;7.540;2023-02-18T11:56:25;7.33;;;4.63;;
16189;SDS011;41754;51.498;7.540;2023-02-18T11:58:57;5.10;;;3.83;;
16189;SDS011;41754;51.498;7.540;2023-02-18T12:01:35;6.23;;;4.10;;
16189;SDS011;41754;51.498;7.540;2023-02-18T12:04:10;5.33;;;4.07;;
16189;SDS011;41754;51.498;7.540;2023-02-18T12:06:42;6.13;;;3.90;;
16189;SDS011;41754;51.498;7.540;2023-02-18T12:09:18;3.67;;;3.37;;
16189;SDS011;41754;51.498;7.540;2023-02-18T12:11:50;6.87;;;3.50;;
16189;SDS011;41754;51.498;7.540;2023-02-18T12:14:25;3.93;;;2.90;;
16189;SDS011;41754;51.498;7.540;2023-02-18T12:16:59;5.53;;;3.40;;
16189;SDS011;41754;51.498;7.540;2023-02-18T12:22:51;4.20;;;3.27;;
16189;SDS011;41754;51.498;7.540;2023-02-18T12:25:33;4.27;;;3.07;;
16189;SDS011;41754;51.498;7.540;2023-02-18T12:28:22;5.00;;;2.90;;
16189;SDS011;41754;51.498;7.540;2023-02-18T12:31:12;4.27;;;2.60;;
16189;SDS011;41754;51.498;7.540;2023-02-18T12:33:57;4.70;;;2.83;;
16189;SDS011;41754;51.498;7.540;2023-02-18T12:36:38;5.23;;;3.20;;
16189;SDS011;41754;51.498;7.540;2023-02-18T12:39:20;3.77;;;2.40;;
16189;SDS011;41754;51.498;7.540;2023-02-18T12:42:04;3.50;;;3.03;;
16189;SDS011;41754;51.498;7.540;2023-02-18T12:44:58;4.57;;;2.97;;
16189;SDS011;41754;51.498;7.540;2023-02-18T12:47:40;5.23;;;3.00;;
16189;SDS011;41754;51.498;7.540;2023-02-18T12:50:31;3.90;;;2.97;;
16189;SDS011;41754;51.498;7.540;2023-02-18T12:56:09;4.37;;;3.13;;
16189;SDS011;41754;51.498;7.540;2023-02-18T12:58:58;3.60;;;2.80;;
16189;SDS011;41754;51.498;7.540;2023-02-18T13:01:37;4.17;;;2.80;;
16189;SDS011;41754;51.498;7.540;2023-02-18T13:04:27;5.30;;;3.20;;
16189;SDS011;41754;51.498;7.540;2023-02-18T13:07:35;4.30;;;3.20;;
16189;SDS011;41754;51.498;7.540;2023-02-18T13:10:20;3.50;;;3.20;;
16189;SDS011;41754;51.498;7.540;2023-02-18T13:13:13;3.77;;;3.47;;
16189;SDS011;41754;51.498;7.540;2023-02-18T13:15:45;4.20;;;3.80;;
16189;SDS011;41754;51.498;7.540;2023-02-18T13:18:21;4.00;;;3.60;;
16189;SDS011;41754;51.498;7.540;2023-02-18T13:20:53;4.63;;;3.83;;
16189;SDS011;41754;51.498;7.540;2023-02-18T13:23:23;5.73;;;4.70;;
16189;SDS011;41754;51.498;7.540;2023-02-18T13:25:55;4.83;;;4.37;;
16189;SDS011;41754;51.498;7.540;2023-02-18T13:28:28;5.67;;;4.73;;
16189;SDS011;41754;51.498;7.540;2023-02-18T13:31:05;4.80;;;4.30;;
16189;SDS011;41754;51.498;7.540;2023-02-18T13:33:46;5.83;;;4.80;;
16189;SDS011;41754;51.498;7.540;2023-02-18T13:36:24;6.10;;;5.17;;
16189;SDS011;41754;51.498;7.540;2023-02-18T13:39:02;5.60;;;5.10;;
16189;SDS011;41754;51.498;7.540;2023-02-18T13:41:35;5.95;;;5.20;;
16189;SDS011;41754;51.498;7.540;2023-02-18T13:44:08;6.80;;;5.47;;
16189;SDS011;41754;51.498;7.540;2023-02-18T13:46:58;6.83;;;5.33;;
16189;SDS011;41754;51.498;7.540;2023-02-18T13:49:30;5.97;;;5.23;;
16189;SDS011;41754;51.498;7.540;2023-02-18T13:52:01;7.97;;;5.00;;
16189;SDS011;41754;51.498;7.540;2023-02-18T13:54:31;6.37;;;5.50;;
16189;SDS011;41754;51.498;7.540;2023-02-18T13:57:12;7.50;;;5.03;;
16189;SDS011;41754;51.498;7.540;2023-02-18T13:59:43;7.50;;;5.60;;
16189;SDS011;41754;51.498;7.540;2023-02-18T14:02:30;6.00;;;5.45;;
16189;SDS011;41754;51.498;7.540;2023-02-18T14:05:14;7.03;;;5.40;;
16189;SDS011;41754;51.498;7.540;2023-02-18T14:07:49;5.97;;;5.38;;
16189;SDS011;41754;51.498;7.540;2023-02-18T14:10:32;5.95;;;5.00;;
16189;SDS011;41754;51.498;7.540;2023-02-18T14:16:07;5.60;;;5.10;;
16189;SDS011;41754;51.498;7.540;2023-02-18T14:21:34;7.23;;;6.53;;
16189;SDS011;41754;51.498;7.540;2023-02-18T14:24:12;7.38;;;6.00;;
16189;SDS011;41754;51.498;7.540;2023-02-18T14:27:07;8.30;;;7.15;;
16189;SDS011;41754;51.498;7.540;2023-02-18T14:29:42;8.07;;;7.27;;
16189;SDS011;41754;51.498;7.540;2023-02-18T14:32:10;7.67;;;6.77;;
16189;SDS011;41754;51.498;7.540;2023-02-18T14:34:57;10.45;;;7.57;;
16189;SDS011;41754;51.498;7.540;2023-02-18T14:37:44;9.73;;;8.30;;
16189;SDS011;41754;51.498;7.540;2023-02-18T14:43:31;10.65;;;9.30;;
16189;SDS011;41754;51.498;7.540;2023-02-18T14:46:11;10.13;;;8.00;;
16189;SDS011;41754;51.498;7.540;2023-02-18T14:48:54;11.35;;;9.25;;
16189;SDS011;41754;51.498;7.540;2023-02-18T14:51:35;11.33;;;8.53;;
16189;SDS011;41754;51.498;7.540;2023-02-18T14:54:04;14.10;;;10.13;;
16189;SDS011;41754;51.498;7.540;2023-02-18T14:56:41;13.07;;;10.40;;
16189;SDS011;41754;51.498;7.540;2023-02-18T14:59:20;13.25;;;11.00;;
16189;SDS011;41754;51.498;7.540;2023-02-18T15:01:52;14.70;;;11.80;;
16189;SDS011;41754;51.498;7.540;2023-02-18T15:04:20;17.47;;;13.43;;
16189;SDS011;41754;51.498;7.540;2023-02-18T15:06:56;16.75;;;13.20;;
16189;SDS011;41754;51.498;7.540;2023-02-18T15:09:25;17.23;;;12.97;;
16189;SDS011;41754;51.498;7.540;2023-02-18T15:11:55;17.83;;;12.83;;
16189;SDS011;41754;51.498;7.540;2023-02-18T15:14:28;16.25;;;13.40;;
16189;SDS011;41754;51.498;7.540;2023-02-18T15:16:58;16.00;;;12.93;;
16189;SDS011;41754;51.498;7.540;2023-02-18T15:19:27;15.93;;;13.50;;
16189;SDS011;41754;51.498;7.540;2023-02-18T15:21:59;27.63;;;21.45;;
16189;SDS011;41754;51.498;7.540;2023-02-18T15:24:29;23.38;;;15.75;;
16189;SDS011;41754;51.498;7.540;2023-02-18T15:27:00;18.73;;;15.67;;
16189;SDS011;41754;51.498;7.540;2023-02-18T15:29:31;19.27;;;15.13;;